Latest Weather Observations for Coles Point

IDS60801

Issued at 6:05 pm CDT Wednesday 22 October 2014 (issued every 30 minutes, with the page automatically refreshed every 10 minutes)

About weather observations | Map of weather stations | Latest weather observations for SA | Other Formats
Station Details ID: 018191 Name: COLES POINT Lat: -34.37 Lon: 135.37 Height: 28.0 m
Data from the previous 72 hours. | See also: Recent months at Coles Point
Date/Time
CDT
Temp
°C
App
Temp
°C
Dew
Point
Rel
Hum
%
Delta-T
°C
Wind Press
QNH
hPa
Press
MSL
hPa
Rain
since 9 am
mm
Dir
 
Spd
km/h
Gust
km/h
Spd
kts
Gust
kts
22/06:00pm 16.8 12.5 11.9 73 2.7 S 26 35 14 19 1020.6 1020.5 0.0
22/05:30pm 16.9 12.5 11.8 72 2.8 S 26 35 14 19 1020.6 1020.5 0.0
22/05:00pm 17.8 13.2 12.3 70 3.0 S 28 37 15 20 1020.4 1020.3 0.0
22/04:30pm 19.1 14.6 12.6 66 3.6 S 28 37 15 20 1020.4 1020.3 0.0
22/04:00pm 18.6 14.0 12.4 67 3.5 S 28 37 15 20 1020.3 1020.2 0.0
22/03:30pm 19.9 15.9 12.9 64 4.0 S 26 37 14 20 1020.2 1020.1 0.0
22/03:00pm 18.7 14.2 12.5 67 3.5 S 28 37 15 20 1020.4 1020.3 0.0
22/02:30pm 18.7 14.3 12.9 69 3.3 S 28 35 15 19 1020.5 1020.4 0.0
22/02:00pm 18.9 14.8 12.6 67 3.5 S 26 35 14 19 1020.9 1020.8 0.0
22/01:30pm 18.2 13.9 13.1 72 2.9 S 28 37 15 20 1021.0 1020.9 0.0
22/01:00pm 18.2 13.7 12.6 70 3.1 S 28 37 15 20 1021.2 1021.1 0.0
22/12:30pm 17.7 14.4 12.8 73 2.7 S 22 30 12 16 1021.5 1021.4 0.0
22/12:00pm 17.7 14.0 12.8 73 2.7 S 24 32 13 17 1021.3 1021.2 0.0
22/11:30am 17.2 13.6 12.9 76 2.4 S 24 37 13 20 1021.3 1021.2 0.0
22/11:00am 16.2 12.6 12.9 81 1.8 S 24 33 13 18 1021.4 1021.3 0.0
22/10:30am 16.0 12.9 13.3 84 1.5 S 22 32 12 17 1021.4 1021.3 0.0
22/10:00am 15.7 12.0 12.8 83 1.6 S 24 33 13 18 1021.4 1021.3 0.0
22/09:30am 15.4 11.8 13.1 86 1.3 S 24 32 13 17 1020.9 1020.8 0.0
22/09:00am 15.3 12.2 13.3 88 1.1 S 22 30 12 16 1020.6 1020.5 0.0
22/08:30am 15.0 12.5 13.5 91 0.8 S 19 28 10 15 1020.3 1020.2 0.0
22/08:00am 14.9 12.4 13.4 91 0.8 S 19 24 10 13 1019.9 1019.8 0.0
22/07:30am 14.8 11.7 13.3 91 0.8 SSW 22 32 12 17 1019.8 1019.7 0.0
22/07:00am 14.8 12.0 13.3 91 0.8 S 20 30 11 16 1019.5 1019.4 0.0
22/06:30am 14.7 12.0 13.4 92 0.7 SSW 20 30 11 16 1019.2 1019.1 0.0
22/06:00am 14.7 12.5 13.4 92 0.7 S 17 28 9 15 1019.0 1018.9 0.0
22/05:30am 15.1 12.7 13.8 92 0.7 S 19 26 10 14 1018.7 1018.6 0.0
22/05:00am 15.6 14.4 14.1 91 0.8 S 13 20 7 11 1018.6 1018.5 0.0
22/04:30am 15.7 14.2 14.1 90 0.9 S 15 24 8 13 1018.4 1018.3 0.0
22/04:00am 15.7 13.7 13.9 89 1.0 S 17 24 9 13 1018.2 1018.2 0.0
22/03:30am 15.9 13.3 13.9 88 1.1 SSW 20 30 11 16 1018.1 1018.1 0.0
22/03:00am 15.8 14.8 13.5 86 1.3 S 11 15 6 8 1018.2 1018.2 0.0
22/02:30am 16.3 15.0 13.6 84 1.5 S 13 20 7 11 1018.2 1018.2 0.0
22/02:00am 16.6 14.8 13.3 81 1.9 SSW 15 22 8 12 1018.1 1018.1 0.0
22/01:30am 16.9 16.1 12.8 77 2.3 S 9 15 5 8 1018.2 1018.2 0.0
22/01:00am 16.8 16.3 12.5 76 2.4 SSW 7 13 4 7 1018.6 1018.5 0.0
22/12:30am 17.6 16.7 12.5 72 2.8 S 9 15 5 8 1018.5 1018.4 0.0
22/12:00am 17.8 15.0 12.7 72 2.8 SSW 19 30 10 16 1018.6 1018.5 0.0
 
Date/Time
CDT
Temp
°C
App
Temp
°C
Dew
Point
Rel
Hum
%
Delta-T
°C
Wind Press
QNH
hPa
Press
MSL
hPa
Rain
since 9 am
mm
Dir
 
Spd
km/h
Gust
km/h
Spd
kts
Gust
kts
21/11:30pm 18.2 15.2 12.4 69 3.2 S 20 28 11 15 1018.6 1018.5 0.0
21/11:00pm 18.3 15.5 12.7 70 3.1 S 19 24 10 13 1018.7 1018.6 0.0
21/10:30pm 18.7 15.1 12.9 69 3.3 SSW 24 32 13 17 1018.5 1018.4 0.0
21/10:00pm 18.1 15.0 13.4 74 2.7 SSW 22 30 12 16 1018.4 1018.3 0.0
21/09:30pm 18.7 16.8 12.9 69 3.3 SW 15 20 8 11 1017.2 1017.2 0.0
21/09:00pm 21.6 19.2 8.8 44 6.8 SSE 11 13 6 7 1016.3 1016.3 0.0
21/08:30pm 23.3 20.2 5.7 32 8.9 S 11 17 6 9 1016.0 1016.0 0.0
21/08:00pm 22.4 20.4 7.0 37 7.9 S 7 13 4 7 1015.5 1015.5 0.0
21/07:30pm 23.3 20.7 6.1 33 8.8 S 9 11 5 6 1015.2 1015.2 0.0
21/07:00pm 24.8 22.2 6.1 30 9.6 S 9 15 5 8 1014.9 1014.9 0.0
21/06:30pm 25.5 22.3 6.7 30 9.8 S 13 19 7 10 1015.0 1015.0 0.0
21/06:00pm 26.7 23.7 6.2 27 10.7 S 11 17 6 9 1014.9 1014.9 0.0
21/05:30pm 26.4 22.1 7.9 31 9.9 SSW 20 30 11 16 1014.8 1014.8 0.0
21/05:00pm 25.4 22.3 8.8 35 9.0 SW 15 20 8 11 1015.0 1015.0 0.0
21/04:30pm 26.0 22.6 7.6 31 9.8 SW 15 22 8 12 1014.8 1014.8 0.0
21/04:18pm 27.6 23.0 6.4 26 11.1 W 20 28 11 15 1014.7 1014.7 0.0
21/04:14pm 32.6 28.3 3.5 16 15.0 NNW 15 30 8 16 1014.7 1014.7 0.0
21/04:00pm 33.9 24.8 -0.7 11 16.8 NNE 37 59 20 32 1014.0 1014.0 0.0
21/03:50pm 33.8 23.4 -0.7 11 16.7 N 44 65 24 35 1014.1 1014.1 0.0
21/03:30pm 33.0 26.0 -0.2 12 16.1 NW 26 46 14 25 1014.9 1014.9 0.0
21/03:00pm 32.8 25.3 -1.5 11 16.3 N 28 43 15 23 1014.7 1014.7 0.0
21/02:30pm 31.8 26.6 0.0 13 15.4 NNW 17 24 9 13 1015.5 1015.5 0.0
21/02:00pm 31.6 26.4 -0.1 13 15.3 NNW 17 24 9 13 1015.6 1015.6 0.0
21/01:30pm 32.6 25.8 -1.7 11 16.2 N 24 33 13 18 1015.7 1015.7 0.0
21/01:00pm 33.1 26.6 -2.6 10 16.7 N 22 32 12 17 1015.8 1015.8 0.0
21/12:30pm 33.2 26.1 -1.2 11 16.4 NNW 26 35 14 19 1016.5 1016.5 0.0
21/12:00pm 31.9 24.7 -2.2 11 15.9 N 26 37 14 20 1016.7 1016.7 0.0
21/11:30am 32.0 24.8 -2.1 11 15.9 N 26 35 14 19 1017.0 1017.0 0.0
21/11:00am 31.5 25.9 -0.2 13 15.3 N 19 22 10 12 1017.2 1017.2 0.0
21/10:30am 28.0 24.3 2.2 19 12.6 N 11 17 6 9 1017.4 1017.4 0.0
21/10:00am 26.2 23.1 3.5 23 11.2 NNE 9 17 5 9 1017.4 1017.4 0.0
21/09:30am 25.0 21.5 3.6 25 10.5 NNE 11 17 6 9 1017.3 1017.3 0.0
21/09:00am 24.7 21.8 2.8 24 10.6 N 7 13 4 7 1017.2 1017.2 0.0
21/08:30am 22.5 19.6 6.3 35 8.2 N 11 15 6 8 1017.2 1017.2 0.0
21/08:00am 24.5 18.6 1.4 22 10.9 N 22 33 12 18 1016.8 1016.8 0.0
21/07:30am 22.1 16.5 3.3 29 9.0 NNE 22 26 12 14 1016.0 1016.0 0.0
21/07:00am 21.7 16.1 3.4 30 8.8 NNE 22 24 12 13 1015.6 1015.6 0.0
21/06:30am 20.9 15.9 4.5 34 8.0 NNE 20 24 11 13 1015.4 1015.4 0.0
21/06:00am 20.5 15.8 6.1 39 7.2 NE 20 22 11 12 1015.1 1015.1 0.0
21/05:30am 20.4 15.8 6.4 40 7.0 NE 20 24 11 13 1014.7 1014.7 0.0
21/05:00am 20.4 16.3 6.4 40 7.0 NNE 17 20 9 11 1014.8 1014.8 0.0
21/04:30am 21.2 17.2 6.7 39 7.4 NNE 17 20 9 11 1014.9 1014.9 0.0
21/04:00am 21.2 17.7 7.4 41 7.1 NNE 15 20 8 11 1014.8 1014.8 0.0
21/03:30am 22.1 17.9 7.5 39 7.6 NNE 19 24 10 13 1015.0 1015.0 0.0
21/03:00am 21.6 18.0 8.5 43 6.9 NNE 17 22 9 12 1015.2 1015.2 0.0
21/02:30am 21.4 18.0 9.0 45 6.6 N 17 20 9 11 1015.1 1015.1 0.0
21/02:00am 21.3 17.9 9.2 46 6.5 N 17 22 9 12 1015.4 1015.4 0.0
21/01:30am 20.7 17.7 9.3 48 6.1 N 15 19 8 10 1015.9 1015.9 0.0
21/01:00am 20.6 17.4 9.8 50 5.8 N 17 19 9 10 1016.3 1016.3 0.0
21/12:30am 21.2 18.2 9.4 47 6.3 N 15 19 8 10 1016.6 1016.6 0.0
21/12:00am 23.4 19.2 8.3 38 8.0 NE 20 32 11 17 1016.8 1016.8 0.0
 
Date/Time
CDT
Temp
°C
App
Temp
°C
Dew
Point
Rel
Hum
%
Delta-T
°C
Wind Press
QNH
hPa
Press
MSL
hPa
Rain
since 9 am
mm
Dir
 
Spd
km/h
Gust
km/h
Spd
kts
Gust
kts
20/11:30pm 24.8 19.8 7.9 34 9.0 ENE 24 37 13 20 1016.7 1016.7 0.0
20/11:00pm 23.0 20.7 9.0 41 7.5 NNE 11 19 6 10 1017.2 1017.2 0.0
20/10:30pm 21.6 19.0 10.7 50 6.0 N 15 20 8 11 1017.6 1017.6 0.0
20/10:00pm 22.0 19.4 10.8 49 6.2 N 15 20 8 11 1017.8 1017.8 0.0
20/09:30pm 23.8 20.3 8.6 38 8.1 NE 17 22 9 12 1018.0 1018.0 0.0
20/09:00pm 24.0 19.7 9.2 39 8.0 ENE 22 28 12 15 1017.8 1017.8 0.0
20/08:30pm 24.1 19.9 8.1 36 8.5 NE 20 28 11 15 1017.7 1017.7 0.0
20/08:00pm 24.7 20.4 7.8 34 9.0 ENE 20 28 11 15 1017.5 1017.5 0.0
20/07:30pm 25.3 21.8 7.4 32 9.4 E 15 19 8 10 1017.3 1017.3 0.0
20/07:00pm 27.2 24.3 6.6 27 10.8 ESE 11 15 6 8 1017.2 1017.2 0.0
20/06:30pm 28.5 26.1 7.1 26 11.4 E 9 19 5 10 1017.2 1017.2 0.0
20/06:00pm 28.7 25.5 6.7 25 11.7 E 13 19 7 10 1017.0 1017.0 0.0
20/05:30pm 29.5 25.3 7.4 25 11.9 E 19 28 10 15 1017.0 1017.0 0.0
20/05:00pm 30.8 26.4 9.1 26 12.1 E 22 30 12 16 1016.9 1016.9 0.0
20/04:30pm 32.0 26.7 7.0 21 13.6 E 24 32 13 17 1016.8 1016.8 0.0
20/04:00pm 32.4 27.0 8.0 22 13.5 E 26 32 14 17 1016.9 1016.9 0.0
20/03:30pm 33.3 28.9 7.3 20 14.3 ESE 20 28 11 15 1017.3 1017.3 0.0
20/03:00pm 32.8 28.5 6.9 20 14.1 E 19 24 10 13 1017.8 1017.8 0.0
20/02:30pm 32.1 28.7 9.0 24 13.0 E 17 26 9 14 1018.4 1018.3 0.0
20/02:00pm 31.1 27.1 8.2 24 12.6 NE 19 28 10 15 1018.7 1018.6 0.0
20/01:30pm 30.8 25.7 9.1 26 12.1 ENE 26 33 14 18 1018.9 1018.8 0.0
20/01:00pm 30.6 25.8 8.9 26 12.1 ENE 24 32 13 17 1019.3 1019.2 0.0
20/12:30pm 29.8 24.7 9.3 28 11.4 ENE 26 37 14 20 1019.7 1019.6 0.0
20/12:00pm 28.4 23.3 9.2 30 10.6 NE 26 35 14 19 1020.3 1020.2 0.0
20/11:30am 27.1 21.7 9.5 33 9.7 NE 28 37 15 20 1020.5 1020.4 0.0
20/11:00am 26.1 20.4 9.9 36 9.0 NE 30 37 16 20 1021.0 1020.9 0.0
20/10:30am 25.2 20.2 11.0 41 8.0 ENE 28 35 15 19 1021.2 1021.1 0.0
20/10:00am 22.7 17.4 11.1 48 6.4 NE 30 37 16 20 1021.2 1021.1 0.0
20/09:30am 20.5 15.2 11.2 55 5.1 NE 30 39 16 21 1021.3 1021.2 0.0
20/09:00am 18.7 14.4 12.0 65 3.7 NNE 26 33 14 18 1021.0 1020.9 0.0
20/08:30am 17.6 12.3 11.4 67 3.4 NNE 30 39 16 21 1020.7 1020.6 0.0
20/08:00am 17.8 13.6 11.1 65 3.6 NE 24 35 13 19 1020.4 1020.3 0.0
20/07:30am 17.2 12.5 10.8 66 3.4 NE 26 39 14 21 1020.2 1020.1 0.0
20/07:00am 16.8 11.3 10.6 67 3.3 NE 30 39 16 21 1019.9 1019.8 0.0
20/06:30am 16.5 10.6 10.6 68 3.1 NE 32 41 17 22 1019.6 1019.5 0.0
20/06:00am 16.3 10.3 10.8 70 2.9 ENE 33 44 18 24 1019.6 1019.5 0.0
20/05:30am 16.0 10.7 11.2 73 2.6 NE 30 39 16 21 1019.6 1019.5 0.0
20/05:00am 15.9 11.7 11.1 73 2.6 NE 24 33 13 18 1019.7 1019.6 0.0
20/04:30am 15.6 13.5 11.0 74 2.4 ENE 13 22 7 12 1020.1 1020.0 0.0
20/04:00am 15.4 10.5 11.4 77 2.1 ENE 28 39 15 21 1020.1 1020.0 0.0
20/03:30am 15.5 10.5 11.1 75 2.3 ENE 28 43 15 23 1020.2 1020.1 0.0
20/03:00am 15.4 11.6 11.0 75 2.3 ENE 22 32 12 17 1020.3 1020.2 0.0
20/02:30am 15.0 11.5 11.0 77 2.1 ENE 20 26 11 14 1020.4 1020.3 0.0
20/02:00am 15.5 11.4 11.3 76 2.3 ENE 24 33 13 18 1020.5 1020.4 0.0
20/01:30am 15.6 11.1 11.4 76 2.3 ENE 26 33 14 18 1020.6 1020.5 0.0
20/01:00am 15.5 12.2 11.5 77 2.2 ENE 20 32 11 17 1020.8 1020.7 0.0
20/12:30am 15.6 12.2 11.4 76 2.3 ENE 20 30 11 16 1020.9 1020.8 0.0
20/12:00am 16.0 10.4 11.6 75 2.4 ENE 32 43 17 23 1020.7 1020.6 0.0
 
Date/Time
CDT
Temp
°C
App
Temp
°C
Dew
Point
Rel
Hum
%
Delta-T
°C
Wind Press
QNH
hPa
Press
MSL
hPa
Rain
since 9 am
mm
Dir
 
Spd
km/h
Gust
km/h
Spd
kts
Gust
kts
19/11:30pm 16.2 10.9 11.4 73 2.6 ENE 30 39 16 21 1020.9 1020.8 0.0
19/11:00pm 16.6 11.7 11.3 71 2.9 ENE 28 41 15 22 1021.0 1020.9 0.0
19/10:30pm 16.6 12.1 11.3 71 2.9 ENE 26 37 14 20 1021.2 1021.1 0.0
19/10:00pm 16.8 12.3 11.3 70 3.0 ENE 26 35 14 19 1021.1 1021.0 0.0
19/09:30pm 16.7 12.3 11.6 72 2.8 ENE 26 35 14 19 1021.0 1020.9 0.0
19/09:00pm 17.0 13.5 12.3 74 2.6 E 22 33 12 18 1020.8 1020.7 0.0
19/08:30pm 17.4 15.5 11.9 70 3.0 E 13 26 7 14 1020.6 1020.5 0.0
19/08:00pm 17.9 14.7 11.9 68 3.3 ESE 20 28 11 15 1020.5 1020.4 0.0
19/07:30pm 19.3 16.1 11.8 62 4.1 ESE 20 33 11 18 1020.0 1019.9 0.0
19/07:00pm 21.2 17.1 12.6 58 4.9 ESE 26 37 14 20 1019.5 1019.4 0.0
19/06:30pm 23.4 18.4 10.8 45 7.0 SE 28 37 15 20 1019.2 1019.1 0.0

Other Formats:

Comma delimited format used in spreadsheet applications
http://www.bom.gov.au/fwo/IDS60801/IDS60801.94658.axf

JavaScript Object Notation format (JSON) in row-major order
http://www.bom.gov.au/fwo/IDS60801/IDS60801.94658.json